ADDS METAR Data INFO
IDs: Format: Raw Decoded Include TAF

Data at: 0040 UTC 21 Jan 2018

METAR for:KCMH (Columbus Intl, OH, US)
Text:KCMH 202351Z 22007KT 10SM BKN028 BKN250 06/M01 A3010 RMK AO2 SLP198 4/002 T00611006 10067 20050 53014
Temperature: 6.1°C ( 43°F)
Dewpoint: -0.6°C ( 31°F) [RH = 62%]
Pressure (altimeter):30.10 inches Hg (1019.4 mb) [Sea level pressure: 1019.8 mb]
Winds:from the SW (220 degrees) at 8 MPH (7 knots; 3.6 m/s)
Visibility:10 or more sm (16+ km)
Ceiling:2800 feet AGL
Clouds: broken clouds at 2800 feet AGL, broken clouds at 25000 feet AGL